createdAt,value
2019-02-19T00:00:48.778Z,96853.22
2019-02-19T00:03:20.684Z,96853.89
2019-02-19T00:05:52.815Z,96855.77
2019-02-19T00:08:24.960Z,96854.30
2019-02-19T00:10:56.805Z,96858.09
2019-02-19T00:13:29.719Z,96861.30
2019-02-19T00:16:01.622Z,96859.09
2019-02-19T00:18:33.549Z,96855.59
2019-02-19T00:21:05.314Z,96856.34
2019-02-19T00:23:37.157Z,96853.39
2019-02-19T00:26:14.293Z,96856.91
2019-02-19T00:28:46.142Z,96858.58
2019-02-19T00:31:17.978Z,96855.06
2019-02-19T00:33:49.846Z,96853.98
2019-02-19T00:36:21.773Z,96856.28
2019-02-19T00:38:53.875Z,96858.20
2019-02-19T00:41:25.789Z,96855.98
2019-02-19T00:43:57.634Z,96846.84
2019-02-19T00:46:29.535Z,96855.36
2019-02-19T00:49:01.637Z,96853.86
2019-02-19T00:51:33.415Z,96849.23
2019-02-19T00:54:05.325Z,96852.39
2019-02-19T00:56:37.091Z,96852.02
2019-02-19T00:59:09.194Z,96850.18
2019-02-19T01:01:41.098Z,96849.52
2019-02-19T01:04:13.124Z,96852.84
2019-02-19T01:06:45.033Z,96864.56
2019-02-19T01:09:16.957Z,96855.34
2019-02-19T01:11:48.788Z,96864.02
2019-02-19T01:14:20.648Z,96850.09
2019-02-19T01:16:52.410Z,96848.42
2019-02-19T01:19:24.355Z,96846.47
2019-02-19T01:21:56.110Z,96841.96
2019-02-19T01:24:27.959Z,96843.80
2019-02-19T01:26:59.795Z,96836.78
2019-02-19T01:29:31.558Z,96841.05
2019-02-19T01:32:03.337Z,96845.45
2019-02-19T01:34:36.222Z,96835.48
2019-02-19T01:37:08.119Z,96836.41
2019-02-19T01:39:39.887Z,96841.20
2019-02-19T01:42:11.956Z,96835.20
2019-02-19T01:44:43.728Z,96833.82
2019-02-19T01:47:15.492Z,96833.53
2019-02-19T01:49:47.576Z,96831.44
2019-02-19T01:52:19.488Z,96835.48
2019-02-19T01:54:51.334Z,96831.89
2019-02-19T01:57:23.114Z,96828.55
2019-02-19T01:59:54.899Z,96828.93
2019-02-19T02:02:26.726Z,96827.73
2019-02-19T02:04:58.844Z,96826.42
2019-02-19T02:07:30.676Z,96823.66
2019-02-19T02:10:02.529Z,96830.02
2019-02-19T02:12:35.752Z,96824.38
2019-02-19T02:15:08.128Z,96828.62
2019-02-19T02:17:40.859Z,96826.95
2019-02-19T02:20:12.788Z,96827.85
2019-02-19T02:22:44.728Z,96834.50
2019-02-19T02:25:16.835Z,96826.10
2019-02-19T02:27:48.668Z,96835.23
2019-02-19T02:30:20.547Z,96826.49
2019-02-19T02:32:52.386Z,96827.67
2019-02-19T02:35:24.564Z,96826.39
2019-02-19T02:37:56.431Z,96817.14
2019-02-19T02:40:28.295Z,96823.81
2019-02-19T02:43:01.175Z,96819.54
2019-02-19T02:45:32.965Z,96818.52
2019-02-19T02:48:04.876Z,96822.48
2019-02-19T02:50:36.650Z,96819.14
2019-02-19T02:53:08.424Z,96819.00
2019-02-19T02:55:40.518Z,96823.81
2019-02-19T02:58:12.533Z,96820.55
2019-02-19T03:00:44.389Z,96819.54
2019-02-19T03:03:16.226Z,96826.08
2019-02-19T03:06:25.194Z,96820.45
2019-02-19T03:08:57.052Z,96824.49
2019-02-19T03:11:28.831Z,96820.52
2019-02-19T03:14:00.578Z,96826.71
2019-02-19T03:16:32.333Z,96820.04
2019-02-19T03:19:07.819Z,96822.54
2019-02-19T03:21:39.634Z,96823.37
2019-02-19T03:24:11.521Z,96820.88
2019-02-19T03:26:43.255Z,96825.80
2019-02-19T03:29:15.086Z,96824.96
2019-02-19T03:31:46.830Z,96827.65
2019-02-19T03:34:18.845Z,96830.97
2019-02-19T03:36:50.576Z,96839.08
2019-02-19T03:39:22.342Z,96839.81
2019-02-19T03:41:54.091Z,96837.95
2019-02-19T03:44:25.848Z,96836.11
2019-02-19T03:46:57.582Z,96837.94
2019-02-19T03:49:29.356Z,96841.97
2019-02-19T03:52:01.168Z,96845.66
2019-02-19T03:54:33.094Z,96847.41
2019-02-19T03:57:04.977Z,96847.86
2019-02-19T03:59:36.881Z,96850.63
2019-02-19T04:02:09.930Z,96850.63
2019-02-19T04:04:41.735Z,96854.13
2019-02-19T04:07:13.473Z,96859.98
2019-02-19T04:09:45.224Z,96858.89
2019-02-19T04:12:16.957Z,96861.17
2019-02-19T04:14:48.697Z,96862.38
2019-02-19T04:17:20.721Z,96866.82
2019-02-19T04:19:52.485Z,96867.77
2019-02-19T04:22:24.227Z,96866.63
2019-02-19T04:24:55.970Z,96868.34
2019-02-19T04:27:28.293Z,96868.11
2019-02-19T04:30:00.209Z,96870.62
2019-02-19T04:32:32.310Z,96879.92
2019-02-19T04:35:04.260Z,96880.57
2019-02-19T04:37:35.978Z,96881.33
2019-02-19T04:40:08.145Z,96874.57
2019-02-19T04:42:39.874Z,96879.16
2019-02-19T04:45:11.870Z,96876.80
2019-02-19T04:47:43.606Z,96870.88
2019-02-19T04:50:15.367Z,96872.09
2019-02-19T04:52:47.108Z,96869.30
2019-02-19T04:55:19.077Z,96871.34
2019-02-19T04:57:50.802Z,96872.67
2019-02-19T05:00:22.635Z,96867.01
2019-02-19T05:02:54.373Z,96867.81
2019-02-19T05:05:27.873Z,96866.94
2019-02-19T05:07:59.605Z,96871.04
2019-02-19T05:10:31.432Z,96872.28
2019-02-19T05:13:03.960Z,96875.14
2019-02-19T05:15:35.710Z,96878.06
2019-02-19T05:18:07.541Z,96875.14
2019-02-19T05:20:39.295Z,96867.35
2019-02-19T05:23:11.231Z,96871.30
2019-02-19T05:25:42.990Z,96872.33
2019-02-19T05:28:14.730Z,96871.98
2019-02-19T05:30:46.480Z,96869.06
2019-02-19T05:33:18.482Z,96861.66
2019-02-19T05:35:50.241Z,96860.71
2019-02-19T05:38:23.403Z,96870.09
2019-02-19T05:40:55.211Z,96867.23
2019-02-19T05:43:26.969Z,96863.18
2019-02-19T05:45:58.744Z,96865.27
2019-02-19T05:48:31.428Z,96867.35
2019-02-19T05:51:03.210Z,96875.22
2019-02-19T05:53:34.935Z,96870.05
2019-02-19T05:56:07.005Z,96873.12
2019-02-19T05:58:39.019Z,96876.62
2019-02-19T06:01:11.038Z,96870.77
2019-02-19T06:03:42.844Z,96868.75
2019-02-19T06:06:14.596Z,96869.56
2019-02-19T06:08:46.439Z,96870.20
2019-02-19T06:11:18.205Z,96877.90
2019-02-19T06:13:50.026Z,96874.71
2019-02-19T06:16:21.888Z,96880.52
2019-02-19T06:18:53.660Z,96880.45
2019-02-19T06:21:25.428Z,96879.61
2019-02-19T06:23:57.180Z,96879.03
2019-02-19T06:26:29.004Z,96883.22
2019-02-19T06:29:01.159Z,96889.98
2019-02-19T06:31:33.885Z,96891.01
2019-02-19T06:34:05.765Z,96887.44
2019-02-19T06:36:37.526Z,96884.86
2019-02-19T06:39:10.463Z,96889.77
2019-02-19T06:41:42.214Z,96889.30
2019-02-19T06:44:13.967Z,96890.25
2019-02-19T06:46:45.878Z,96895.61
2019-02-19T06:49:17.626Z,96891.80
2019-02-19T06:51:49.627Z,96901.45
2019-02-19T06:54:21.375Z,96899.16
2019-02-19T06:56:53.147Z,96906.52
2019-02-19T06:59:24.887Z,96914.83
2019-02-19T07:02:18.998Z,96920.41
2019-02-19T07:04:53.939Z,96920.15
2019-02-19T07:07:25.692Z,96923.40
2019-02-19T07:09:57.524Z,96931.36
2019-02-19T07:12:29.269Z,96924.73
2019-02-19T07:15:01.010Z,96929.73
2019-02-19T07:17:32.765Z,96928.81
2019-02-19T07:20:05.013Z,96921.06
2019-02-19T07:22:36.831Z,96917.27
2019-02-19T07:25:10.213Z,96922.91
2019-02-19T07:27:42.610Z,96920.31
2019-02-19T07:30:15.163Z,96924.72
2019-02-19T07:32:46.896Z,96909.95
2019-02-19T07:35:18.627Z,96915.56
2019-02-19T07:37:50.360Z,96911.64
2019-02-19T07:40:22.086Z,96911.41
2019-02-19T07:42:53.825Z,96913.72
2019-02-19T07:45:25.633Z,96915.56
2019-02-19T07:50:43.711Z,96919.58
2019-02-19T07:53:31.572Z,96912.63
2019-02-19T07:56:03.300Z,96914.87
2019-02-19T07:58:35.436Z,96913.14
2019-02-19T08:01:07.309Z,96920.22
2019-02-19T08:03:46.655Z,96923.38
2019-02-19T08:06:20.002Z,96916.38
2019-02-19T08:08:51.748Z,96922.11
2019-02-19T08:11:23.881Z,96919.26
2019-02-19T08:15:32.752Z,96920.81
2019-02-19T08:16:34.947Z,96918.78
2019-02-19T08:19:06.675Z,96919.73
2019-02-19T08:21:38.816Z,96921.72
2019-02-19T08:24:12.356Z,96924.44
2019-02-19T08:26:44.173Z,96925.05
2019-02-19T08:29:15.916Z,96918.21
2019-02-19T08:31:47.633Z,96915.66
2019-02-19T08:34:19.465Z,96917.81
2019-02-19T08:36:51.281Z,96908.70
2019-02-19T08:39:23.023Z,96911.09
2019-02-19T08:41:54.851Z,96914.75
2019-02-19T08:44:26.849Z,96925.77
2019-02-19T08:46:58.841Z,96918.80
2019-02-19T08:49:30.656Z,96929.11
2019-02-19T08:52:02.416Z,96924.22
2019-02-19T08:54:34.146Z,96918.55
2019-02-19T08:57:06.035Z,96913.17
2019-02-19T08:59:37.843Z,96911.52
2019-02-19T09:02:09.952Z,96917.91
2019-02-19T09:04:41.698Z,96917.51
2019-02-19T09:07:13.484Z,96919.94
2019-02-19T09:09:45.237Z,96915.73
2019-02-19T09:12:16.959Z,96925.66
2019-02-19T09:14:49.408Z,96927.14
2019-02-19T09:17:21.513Z,96929.66
2019-02-19T09:19:53.268Z,96936.59
2019-02-19T09:22:24.990Z,96934.12
2019-02-19T09:24:56.719Z,96941.97
2019-02-19T09:27:28.458Z,96932.89
2019-02-19T09:30:00.290Z,96939.77
2019-02-19T09:32:32.033Z,96940.11
2019-02-19T09:35:03.873Z,96941.57
2019-02-19T09:37:35.618Z,96950.86
2019-02-19T09:40:07.927Z,96947.75
2019-02-19T09:42:39.666Z,96947.75
2019-02-19T09:45:11.650Z,96953.16
2019-02-19T09:47:43.463Z,96949.77
2019-02-19T09:50:15.360Z,96948.59
2019-02-19T09:52:47.101Z,96950.41
2019-02-19T09:55:19.879Z,96950.41
2019-02-19T09:57:51.633Z,96948.30
2019-02-19T10:00:24.975Z,96950.03
2019-02-19T10:02:56.726Z,96956.19
2019-02-19T10:05:28.609Z,96957.20
2019-02-19T10:08:00.425Z,96961.30
2019-02-19T10:10:32.225Z,96952.82
2019-02-19T10:13:04.024Z,96960.11
2019-02-19T10:15:35.916Z,96961.35
2019-02-19T10:18:10.297Z,96965.44
2019-02-19T10:20:41.481Z,96961.42
2019-02-19T10:23:13.206Z,96966.89
2019-02-19T10:25:44.951Z,96965.08
2019-02-19T10:28:16.678Z,96969.13
2019-02-19T10:30:48.484Z,96970.28
2019-02-19T10:33:20.307Z,96969.14
2019-02-19T10:35:52.052Z,96962.36
2019-02-19T10:38:23.789Z,96960.33
2019-02-19T10:40:55.853Z,96963.16
2019-02-19T10:43:27.639Z,96964.08
2019-02-19T10:45:59.646Z,96959.36
2019-02-19T10:48:31.382Z,96960.87
2019-02-19T10:51:03.192Z,96964.72
2019-02-19T10:53:34.995Z,96957.81
2019-02-19T10:56:06.885Z,96960.96
2019-02-19T10:58:38.609Z,96968.56
2019-02-19T11:01:10.674Z,96960.20
2019-02-19T11:03:42.403Z,96963.83
2019-02-19T11:06:14.215Z,96959.85
2019-02-19T11:08:45.976Z,96971.81
2019-02-19T11:11:17.718Z,96980.48
2019-02-19T11:13:49.454Z,96967.42
2019-02-19T11:16:21.191Z,96957.98
2019-02-19T11:18:52.929Z,96956.33
2019-02-19T11:21:24.673Z,96945.27
2019-02-19T11:23:56.470Z,96948.45
2019-02-19T11:26:28.225Z,96951.36
2019-02-19T11:28:59.951Z,96944.34
2019-02-19T11:31:31.710Z,96942.55
2019-02-19T11:34:03.430Z,96943.61
2019-02-19T11:36:35.264Z,96940.39
2019-02-19T11:39:07.431Z,96950.22
2019-02-19T11:41:39.324Z,96940.67
2019-02-19T11:44:11.054Z,96941.70
2019-02-19T11:46:42.797Z,96941.57
2019-02-19T11:49:14.607Z,96937.53
2019-02-19T11:51:46.442Z,96934.35
2019-02-19T11:54:18.178Z,96942.78
2019-02-19T11:56:49.919Z,96938.12
2019-02-19T11:59:21.777Z,96925.12
2019-02-19T12:01:53.903Z,96927.86
2019-02-19T12:04:25.621Z,96941.71
2019-02-19T12:06:57.445Z,96941.71
2019-02-19T12:09:29.428Z,96945.40
2019-02-19T12:12:01.165Z,96943.60
2019-02-19T12:14:32.965Z,96948.67
2019-02-19T12:17:04.777Z,96952.98
2019-02-19T12:19:36.574Z,96954.43
2019-02-19T12:22:08.324Z,96947.55
2019-02-19T12:24:40.330Z,96942.72
2019-02-19T12:27:12.148Z,96943.42
2019-02-19T12:29:43.886Z,96940.75
2019-02-19T12:32:17.863Z,96935.47
2019-02-19T12:34:49.203Z,96939.50
2019-02-19T12:37:21.390Z,96944.70
2019-02-19T12:39:53.172Z,96941.73
2019-02-19T12:42:24.995Z,96949.86
2019-02-19T12:44:56.967Z,96941.11
2019-02-19T12:47:36.573Z,96950.38
2019-02-19T12:50:11.794Z,96942.42
2019-02-19T12:52:43.791Z,96957.48
2019-02-19T12:55:15.569Z,96943.02
2019-02-19T12:57:47.409Z,96950.88
2019-02-19T13:00:19.342Z,96956.68
2019-02-19T13:02:51.130Z,96958.53
2019-02-19T13:05:23.008Z,96955.22
2019-02-19T13:07:55.012Z,96957.31
2019-02-19T13:10:26.742Z,96952.34
2019-02-19T13:12:58.477Z,96954.11
2019-02-19T13:15:30.278Z,96955.08
2019-02-19T13:18:02.327Z,96951.84
2019-02-19T13:20:34.133Z,96953.76
2019-02-19T13:23:08.963Z,96950.95
2019-02-19T13:25:40.675Z,96954.11
2019-02-19T13:28:12.421Z,96961.63
2019-02-19T13:30:44.141Z,96966.83
2019-02-19T13:33:15.871Z,96962.48
2019-02-19T13:35:47.672Z,96968.48
2019-02-19T13:38:19.507Z,96961.14
2019-02-19T13:40:51.289Z,96965.16
2019-02-19T13:43:23.133Z,96970.12
2019-02-19T13:45:54.863Z,96976.84
2019-02-19T13:48:26.682Z,96975.59
2019-02-19T13:50:58.418Z,96972.43
2019-02-19T13:53:40.509Z,96970.36
2019-02-19T13:56:12.308Z,96974.98
2019-02-19T13:58:44.059Z,96969.64
2019-02-19T14:01:15.874Z,96969.70
2019-02-19T14:03:47.958Z,96972.02
2019-02-19T14:06:20.713Z,96976.80
2019-02-19T14:08:52.435Z,96972.69
2019-02-19T14:11:25.742Z,96980.82
2019-02-19T14:14:09.636Z,96977.50
2019-02-19T14:16:47.436Z,96980.12
2019-02-19T14:19:34.953Z,96980.06
2019-02-19T14:22:25.611Z,96967.86
2019-02-19T14:25:15.187Z,96975.30
2019-02-19T14:28:05.676Z,96984.05
2019-02-19T14:30:59.554Z,96974.34
2019-02-19T14:33:49.249Z,96976.84
2019-02-19T14:36:37.385Z,96980.45
2019-02-19T14:39:27.504Z,96972.80
2019-02-19T14:42:16.675Z,96977.36
2019-02-19T14:45:07.330Z,96978.91
2019-02-19T14:48:03.852Z,96980.70
2019-02-19T14:50:54.676Z,96980.94
2019-02-19T14:53:45.333Z,96982.48
2019-02-19T14:56:36.943Z,96982.37
2019-02-19T14:59:25.525Z,96983.09
2019-02-19T15:02:19.020Z,96980.10
2019-02-19T15:05:12.728Z,96978.80
2019-02-19T15:07:53.939Z,96978.45
2019-02-19T15:10:42.874Z,96975.58
2019-02-19T15:13:36.611Z,96973.52
2019-02-19T15:16:28.567Z,96969.81
2019-02-19T15:19:19.834Z,96978.22
2019-02-19T15:22:00.512Z,96978.61
2019-02-19T15:24:55.293Z,96983.69
2019-02-19T15:27:35.967Z,96976.77
2019-02-19T15:30:35.303Z,96970.75
2019-02-19T15:33:17.095Z,96966.66
2019-02-19T15:36:06.177Z,96963.31
2019-02-19T15:38:59.610Z,96968.36
2019-02-19T15:41:51.719Z,96968.11
2019-02-19T15:44:40.831Z,96961.75
2019-02-19T15:47:31.931Z,96960.82
2019-02-19T15:50:23.451Z,96953.16
2019-02-19T15:53:07.905Z,96958.33
2019-02-19T15:56:06.656Z,96952.98
2019-02-19T15:59:03.383Z,96963.86
2019-02-19T16:01:54.026Z,96961.14
2019-02-19T16:04:35.257Z,96955.23
2019-02-19T16:07:25.407Z,96954.66
2019-02-19T16:10:03.297Z,96962.26
2019-02-19T16:12:47.036Z,96965.58
2019-02-19T16:15:44.120Z,96960.58
2019-02-19T16:18:43.537Z,96959.41
2019-02-19T16:21:33.126Z,96960.47
2019-02-19T16:24:20.874Z,96960.59
2019-02-19T16:27:01.452Z,96960.41
2019-02-19T16:29:55.134Z,96956.48
2019-02-19T16:32:46.754Z,96953.11
2019-02-19T16:35:33.822Z,96952.91
2019-02-19T16:38:10.571Z,96954.30
2019-02-19T16:40:57.453Z,96960.34
2019-02-19T16:43:46.908Z,96966.78
2019-02-19T16:46:40.468Z,96961.66
2019-02-19T16:49:28.143Z,96966.00
2019-02-19T16:52:05.933Z,96971.39
2019-02-19T16:55:05.809Z,96971.08
2019-02-19T16:58:08.678Z,96977.08
2019-02-19T17:00:57.974Z,96979.12
2019-02-19T17:03:49.085Z,96988.44
2019-02-19T17:06:43.005Z,96990.05
2019-02-19T17:09:33.942Z,96990.69
2019-02-19T17:12:21.645Z,96999.98
2019-02-19T17:15:12.288Z,97004.56
2019-02-19T17:18:08.953Z,97006.96
2019-02-19T17:21:00.595Z,97004.67
2019-02-19T17:23:54.526Z,97009.19
2019-02-19T17:26:45.726Z,97010.38
2019-02-19T17:29:29.579Z,97008.63
2019-02-19T17:32:18.876Z,97015.75
2019-02-19T17:35:01.051Z,97014.84
2019-02-19T17:37:51.788Z,97016.59
2019-02-19T17:40:36.843Z,97015.19
2019-02-19T17:43:31.420Z,97012.41
2019-02-19T17:46:28.188Z,97019.49
2019-02-19T17:49:19.344Z,97032.67
2019-02-19T17:52:06.307Z,97027.59
2019-02-19T17:54:44.506Z,97038.88
2019-02-19T17:57:51.126Z,97039.83
2019-02-19T18:00:38.432Z,97045.98
2019-02-19T18:03:44.005Z,97048.19
2019-02-19T18:06:22.150Z,97054.33
2019-02-19T18:09:00.405Z,97053.11
2019-02-19T18:12:07.905Z,97058.41
2019-02-19T18:14:49.376Z,97062.50
2019-02-19T18:17:51.685Z,97063.84
2019-02-19T18:20:23.432Z,97062.03
2019-02-19T18:22:55.176Z,97056.15
2019-02-19T18:25:27.163Z,97060.83
2019-02-19T18:27:58.934Z,97065.41
2019-02-19T18:30:31.219Z,97067.08
2019-02-19T18:33:04.631Z,97069.05
2019-02-19T18:35:36.450Z,97069.58
2019-02-19T18:38:09.282Z,97075.89
2019-02-19T18:40:41.103Z,97073.28
2019-02-19T18:43:12.847Z,97076.52
2019-02-19T18:45:44.584Z,97081.09
2019-02-19T18:48:16.453Z,97079.35
2019-02-19T18:50:52.644Z,97076.68
2019-02-19T18:53:21.771Z,97081.73
2019-02-19T18:55:54.560Z,97081.84
2019-02-19T18:58:26.298Z,97084.50
2019-02-19T19:00:58.400Z,97088.19
2019-02-19T19:03:30.294Z,97080.63
2019-02-19T19:06:02.095Z,97080.55
2019-02-19T19:08:34.100Z,97086.38
2019-02-19T19:11:05.993Z,97091.19
2019-02-19T19:13:37.749Z,97091.70
2019-02-19T19:16:09.729Z,97093.23
2019-02-19T19:18:41.470Z,97093.64
2019-02-19T19:21:13.287Z,97098.09
2019-02-19T19:23:46.260Z,97091.78
2019-02-19T19:26:18.044Z,97096.15
2019-02-19T19:28:49.813Z,97095.63
2019-02-19T19:31:21.688Z,97099.73
2019-02-19T19:33:53.462Z,97096.49
2019-02-19T19:36:25.249Z,97106.26
2019-02-19T19:38:57.060Z,97100.84
2019-02-19T19:41:28.908Z,97110.47
2019-02-19T19:44:00.675Z,97109.72
2019-02-19T19:46:32.493Z,97111.97
2019-02-19T19:49:04.341Z,97113.39
2019-02-19T19:51:36.356Z,97112.46
2019-02-19T19:54:08.218Z,97109.40
2019-02-19T19:56:40.030Z,97107.97
2019-02-19T19:59:11.819Z,97109.12
2019-02-19T20:01:43.829Z,97109.45
2019-02-19T20:04:16.554Z,97113.79
2019-02-19T20:06:49.007Z,97116.19
2019-02-19T20:12:00.259Z,97111.39
2019-02-19T20:14:33.089Z,97120.48
2019-02-19T20:17:04.925Z,97128.47
2019-02-19T20:19:36.692Z,97129.02
2019-02-19T20:22:08.934Z,97137.63
2019-02-19T20:24:40.678Z,97137.83
2019-02-19T20:27:12.702Z,97139.59
2019-02-19T20:29:44.545Z,97138.30
2019-02-19T20:32:17.340Z,97139.48
2019-02-19T20:34:49.127Z,97143.11
2019-02-19T20:37:22.217Z,97146.42
2019-02-19T20:39:55.198Z,97142.06
2019-02-19T20:42:26.951Z,97145.87
2019-02-19T20:44:58.755Z,97145.49
2019-02-19T20:47:30.733Z,97147.55
2019-02-19T20:50:02.656Z,97146.62
2019-02-19T20:52:35.378Z,97156.82
2019-02-19T20:55:07.797Z,97156.53
2019-02-19T20:57:39.736Z,97157.16
2019-02-19T21:00:15.022Z,97163.29
2019-02-19T21:02:48.561Z,97163.06
2019-02-19T21:05:20.388Z,97163.80
2019-02-19T21:07:52.149Z,97161.58
2019-02-19T21:10:24.169Z,97165.75
2019-02-19T21:12:55.998Z,97165.29
2019-02-19T21:15:27.820Z,97166.02
2019-02-19T21:17:59.567Z,97168.72
2019-02-19T21:20:31.345Z,97168.42
2019-02-19T21:23:03.204Z,97174.34
2019-02-19T21:25:35.221Z,97171.37
2019-02-19T21:28:07.047Z,97165.63
2019-02-19T21:30:38.853Z,97170.05
2019-02-19T21:33:10.662Z,97165.80
2019-02-19T21:35:42.429Z,97164.31
2019-02-19T21:38:26.806Z,97163.02
2019-02-19T21:41:01.463Z,97164.25
2019-02-19T21:43:33.214Z,97158.40
2019-02-19T21:46:05.095Z,97164.13
2019-02-19T21:48:36.910Z,97165.41
2019-02-19T21:51:09.814Z,97166.31
2019-02-19T21:53:41.567Z,97163.25
2019-02-19T21:56:13.399Z,97169.27
2019-02-19T21:58:45.259Z,97167.88
2019-02-19T22:01:17.010Z,97167.20
2019-02-19T22:03:48.755Z,97162.63
2019-02-19T22:06:20.594Z,97168.56
2019-02-19T22:08:52.415Z,97169.10
2019-02-19T22:11:24.191Z,97165.09
2019-02-19T22:13:55.938Z,97165.09
2019-02-19T22:16:27.770Z,97156.07
2019-02-19T22:18:59.533Z,97152.88
2019-02-19T22:21:47.981Z,97161.56
2019-02-19T22:24:35.153Z,97167.46
2019-02-19T22:27:08.442Z,97164.84
2019-02-19T22:29:41.304Z,97164.30
2019-02-19T22:32:14.729Z,97166.73
2019-02-19T22:34:47.600Z,97164.38
2019-02-19T22:37:20.333Z,97162.48
2019-02-19T22:39:52.161Z,97164.50
2019-02-19T22:42:24.606Z,97166.70
2019-02-19T22:44:56.366Z,97165.37
2019-02-19T22:47:28.122Z,97175.68
2019-02-19T22:49:59.874Z,97168.26
2019-02-19T22:52:31.743Z,97176.02
2019-02-19T22:55:14.185Z,97173.38
2019-02-19T22:57:46.028Z,97180.19
2019-02-19T23:00:37.945Z,97174.55
2019-02-19T23:03:11.367Z,97179.38
2019-02-19T23:05:43.187Z,97184.59
2019-02-19T23:08:14.935Z,97182.54
2019-02-19T23:10:46.686Z,97185.81
2019-02-19T23:13:18.440Z,97186.07
2019-02-19T23:15:50.205Z,97185.73
2019-02-19T23:18:22.054Z,97187.61
2019-02-19T23:20:54.286Z,97182.71
2019-02-19T23:23:26.201Z,97177.84
2019-02-19T23:25:57.948Z,97189.44
2019-02-19T23:28:29.691Z,97185.73
2019-02-19T23:31:01.682Z,97189.95
2019-02-19T23:33:33.454Z,97199.53
2019-02-19T23:36:19.210Z,97188.60
2019-02-19T23:38:51.032Z,97199.41
2019-02-19T23:41:22.934Z,97199.09
2019-02-19T23:43:54.757Z,97199.05
2019-02-19T23:46:26.510Z,97203.37
2019-02-19T23:48:58.267Z,97204.92
2019-02-19T23:51:30.099Z,97205.70
2019-02-19T23:54:01.931Z,97204.48
2019-02-19T23:56:33.751Z,97205.70
2019-02-19T23:59:05.661Z,97207.68
